createdAt,value
2022-11-29T00:00:23.183Z,98361.28
2022-11-29T00:03:32.295Z,98355.94
2022-11-29T00:06:40.378Z,98348.31
2022-11-29T00:09:47.300Z,98348.66
2022-11-29T00:12:53.488Z,98346.41
2022-11-29T00:16:06.743Z,98354.28
2022-11-29T00:19:15.641Z,98353.94
2022-11-29T00:22:23.980Z,98346.03
2022-11-29T00:25:30.637Z,98341.78
2022-11-29T00:28:39.761Z,98343.63
2022-11-29T00:31:49.011Z,98340.47
2022-11-29T00:34:59.390Z,98341.59
2022-11-29T00:38:05.842Z,98341.16
2022-11-29T00:41:14.547Z,98338.72
2022-11-29T00:44:20.960Z,98339.66
2022-11-29T00:47:30.846Z,98341.31
2022-11-29T00:50:36.969Z,98346.50
2022-11-29T00:53:44.113Z,98342.66
2022-11-29T00:56:50.209Z,98339.22
2022-11-29T00:59:57.302Z,98330.38
2022-11-29T01:03:06.248Z,98330.03
2022-11-29T01:06:16.395Z,98338.13
2022-11-29T01:09:23.373Z,98337.09
2022-11-29T01:12:30.234Z,98338.94
2022-11-29T01:15:36.847Z,98337.00
2022-11-29T01:18:47.232Z,98339.34
2022-11-29T01:21:53.357Z,98337.56
2022-11-29T01:25:00.196Z,98338.31
2022-11-29T01:28:08.009Z,98330.19
2022-11-29T01:31:19.019Z,98331.88
2022-11-29T01:34:27.782Z,98329.38
2022-11-29T01:37:35.895Z,98327.53
2022-11-29T01:40:42.052Z,98324.53
2022-11-29T01:44:05.445Z,98327.63
2022-11-29T01:47:14.725Z,98321.34
2022-11-29T01:50:25.123Z,98324.16
2022-11-29T01:53:32.784Z,98327.41
2022-11-29T01:56:42.150Z,98320.97
2022-11-29T01:59:53.674Z,98321.34
2022-11-29T02:03:12.508Z,98325.34
2022-11-29T02:06:21.865Z,98331.13
2022-11-29T02:09:29.067Z,98333.22
2022-11-29T02:12:57.451Z,98334.03
2022-11-29T02:16:16.140Z,98342.91
2022-11-29T02:20:02.399Z,98337.69
2022-11-29T02:24:02.676Z,98339.00
2022-11-29T02:28:08.800Z,98350.53
2022-11-29T02:31:58.161Z,98347.38
2022-11-29T02:35:31.835Z,98333.56
2022-11-29T02:39:32.027Z,98339.63
2022-11-29T02:48:02.944Z,98352.00
2022-11-29T02:51:25.149Z,98346.34
2022-11-29T02:54:46.410Z,98344.16
2022-11-29T02:58:09.418Z,98344.84
2022-11-29T03:01:28.965Z,98350.41
2022-11-29T03:04:53.384Z,98357.78
2022-11-29T03:08:19.678Z,98355.09
2022-11-29T03:11:42.526Z,98348.66
2022-11-29T03:15:05.582Z,98360.03
2022-11-29T03:18:37.088Z,98370.00
2022-11-29T03:22:08.770Z,98362.38
2022-11-29T03:25:27.466Z,98363.84
2022-11-29T03:28:44.603Z,98363.47
2022-11-29T03:32:03.582Z,98370.28
2022-11-29T03:35:18.289Z,98369.06
2022-11-29T03:38:40.171Z,98361.25
2022-11-29T03:41:56.378Z,98368.22
2022-11-29T03:45:14.864Z,98368.59
2022-11-29T03:48:32.470Z,98365.59
2022-11-29T03:51:57.578Z,98362.56
2022-11-29T03:55:34.567Z,98372.25
2022-11-29T03:59:00.585Z,98378.75
2022-11-29T04:02:48.874Z,98379.31
2022-11-29T04:06:33.614Z,98383.41
2022-11-29T04:10:17.020Z,98379.50
2022-11-29T04:14:14.219Z,98388.47
2022-11-29T04:18:05.676Z,98387.59
2022-11-29T04:21:45.171Z,98392.66
2022-11-29T04:25:44.459Z,98393.28
2022-11-29T04:29:36.690Z,98396.00
2022-11-29T04:33:33.493Z,98393.00
2022-11-29T04:37:26.517Z,98397.84
2022-11-29T04:41:08.700Z,98397.56
2022-11-29T04:44:44.090Z,98403.16
2022-11-29T04:48:09.413Z,98394.66
2022-11-29T04:51:38.430Z,98409.28
2022-11-29T04:55:00.271Z,98404.34
2022-11-29T04:58:26.340Z,98406.31
2022-11-29T05:01:53.960Z,98408.63
2022-11-29T05:05:21.585Z,98410.19
2022-11-29T05:08:47.966Z,98413.59
2022-11-29T05:12:15.181Z,98424.31
2022-11-29T05:15:53.436Z,98425.06
2022-11-29T05:19:31.746Z,98425.84
2022-11-29T05:22:59.352Z,98433.97
2022-11-29T05:26:19.659Z,98437.22
2022-11-29T05:29:43.337Z,98440.56
2022-11-29T05:33:15.356Z,98442.06
2022-11-29T05:36:40.944Z,98449.69
2022-11-29T05:40:21.042Z,98454.25
2022-11-29T05:44:04.709Z,98448.44
2022-11-29T05:47:21.377Z,98448.19
2022-11-29T05:50:41.065Z,98457.75
2022-11-29T05:54:07.429Z,98459.59
2022-11-29T05:57:31.623Z,98458.34
2022-11-29T06:00:52.761Z,98460.81
2022-11-29T06:04:13.311Z,98459.81
2022-11-29T06:07:38.369Z,98460.91
2022-11-29T06:11:00.980Z,98470.09
2022-11-29T06:14:22.019Z,98476.97
2022-11-29T06:18:00.148Z,98478.91
2022-11-29T06:21:26.071Z,98471.81
2022-11-29T06:25:04.556Z,98476.13
2022-11-29T06:28:43.005Z,98480.50
2022-11-29T06:31:59.218Z,98478.94
2022-11-29T06:35:22.870Z,98476.56
2022-11-29T06:38:33.021Z,98483.03
2022-11-29T06:41:42.863Z,98480.09
2022-11-29T06:44:50.466Z,98479.09
2022-11-29T06:48:06.952Z,98482.66
2022-11-29T06:51:29.155Z,98484.16
2022-11-29T06:55:03.487Z,98483.81
2022-11-29T06:58:40.000Z,98494.13
2022-11-29T07:02:00.723Z,98494.78
2022-11-29T07:05:24.982Z,98493.34
2022-11-29T07:08:32.010Z,98495.94
2022-11-29T07:11:40.214Z,98495.66
2022-11-29T07:14:50.253Z,98504.09
2022-11-29T07:18:18.182Z,98501.53
2022-11-29T07:21:49.058Z,98512.81
2022-11-29T07:25:14.200Z,98509.28
2022-11-29T07:28:44.539Z,98517.69
2022-11-29T07:32:12.218Z,98513.69
2022-11-29T07:35:30.313Z,98512.13
2022-11-29T07:39:03.181Z,98512.66
2022-11-29T07:42:24.672Z,98513.16
2022-11-29T07:45:36.377Z,98514.81
2022-11-29T07:48:45.831Z,98520.09
2022-11-29T07:51:52.576Z,98522.56
2022-11-29T07:54:59.916Z,98529.72
2022-11-29T07:58:06.233Z,98519.75
2022-11-29T08:01:13.297Z,98525.09
2022-11-29T08:04:23.258Z,98526.94
2022-11-29T08:07:29.700Z,98529.47
2022-11-29T08:10:37.103Z,98532.91
2022-11-29T08:13:43.196Z,98547.69
2022-11-29T08:16:50.166Z,98539.53
2022-11-29T08:20:02.651Z,98531.47
2022-11-29T08:23:15.460Z,98531.97
2022-11-29T08:26:29.732Z,98526.75
2022-11-29T08:29:38.387Z,98538.34
2022-11-29T08:32:48.530Z,98540.84
2022-11-29T08:36:09.046Z,98547.84
2022-11-29T08:39:15.305Z,98540.88
2022-11-29T08:42:22.287Z,98539.91
2022-11-29T08:45:28.702Z,98549.88
2022-11-29T08:48:37.237Z,98546.16
2022-11-29T08:51:46.202Z,98549.88
2022-11-29T08:54:50.545Z,98546.53
2022-11-29T08:58:03.204Z,98545.84
2022-11-29T09:01:18.588Z,98549.44
2022-11-29T09:04:25.356Z,98552.94
2022-11-29T09:07:35.266Z,98551.91
2022-11-29T09:10:42.776Z,98550.53
2022-11-29T09:13:53.394Z,98548.59
2022-11-29T09:16:59.418Z,98553.25
2022-11-29T09:20:08.587Z,98552.50
2022-11-29T09:23:17.234Z,98544.72
2022-11-29T09:26:24.283Z,98543.94
2022-11-29T09:29:30.367Z,98553.44
2022-11-29T09:32:38.793Z,98547.56
2022-11-29T09:35:45.492Z,98545.16
2022-11-29T09:38:55.104Z,98541.47
2022-11-29T09:42:30.565Z,98552.50
2022-11-29T09:45:48.100Z,98548.56
2022-11-29T09:49:26.000Z,98560.53
2022-11-29T09:52:52.988Z,98546.50
2022-11-29T09:56:26.243Z,98543.38
2022-11-29T09:59:43.017Z,98551.00
2022-11-29T10:02:57.045Z,98540.94
2022-11-29T10:06:14.935Z,98543.19
2022-11-29T10:09:34.208Z,98549.53
2022-11-29T10:15:59.884Z,98544.72
2022-11-29T10:19:22.835Z,98547.50
2022-11-29T10:22:43.927Z,98544.25
2022-11-29T10:25:54.052Z,98542.31
2022-11-29T10:29:01.972Z,98536.16
2022-11-29T10:32:19.964Z,98533.06
2022-11-29T10:35:27.568Z,98540.94
2022-11-29T10:38:34.428Z,98543.91
2022-11-29T10:41:40.380Z,98539.88
2022-11-29T10:44:47.610Z,98540.72
2022-11-29T10:48:00.908Z,98534.34
2022-11-29T10:51:20.557Z,98532.09
2022-11-29T10:54:43.112Z,98535.78
2022-11-29T10:58:13.045Z,98542.19
2022-11-29T11:01:20.704Z,98539.88
2022-11-29T11:04:46.623Z,98533.47
2022-11-29T11:08:01.921Z,98536.41
2022-11-29T11:11:11.976Z,98536.56
2022-11-29T11:14:25.697Z,98537.13
2022-11-29T11:17:37.880Z,98533.44
2022-11-29T11:20:56.552Z,98536.41
2022-11-29T11:24:06.485Z,98532.38
2022-11-29T11:27:12.740Z,98536.41
2022-11-29T11:30:27.493Z,98537.09
2022-11-29T11:33:37.010Z,98541.38
2022-11-29T11:36:46.733Z,98538.13
2022-11-29T11:39:56.961Z,98536.97
2022-11-29T11:43:06.260Z,98535.13
2022-11-29T11:46:17.751Z,98539.31
2022-11-29T11:49:33.930Z,98527.94
2022-11-29T11:52:50.892Z,98537.88
2022-11-29T11:56:05.125Z,98542.44
2022-11-29T11:59:24.680Z,98543.66
2022-11-29T12:02:42.356Z,98540.00
2022-11-29T12:05:52.026Z,98537.47
2022-11-29T12:09:14.168Z,98534.59
2022-11-29T12:12:28.334Z,98530.56
2022-11-29T12:15:45.586Z,98535.81
2022-11-29T12:18:59.353Z,98529.63
2022-11-29T12:22:21.178Z,98532.22
2022-11-29T12:25:43.265Z,98537.63
2022-11-29T12:28:51.568Z,98538.03
2022-11-29T12:32:25.646Z,98538.69
2022-11-29T12:35:55.369Z,98542.38
2022-11-29T12:39:28.496Z,98547.06
2022-11-29T12:42:58.219Z,98543.66
2022-11-29T12:46:17.578Z,98536.81
2022-11-29T12:49:43.774Z,98540.38
2022-11-29T12:53:09.310Z,98540.88
2022-11-29T12:56:25.101Z,98551.81
2022-11-29T13:00:01.668Z,98548.50
2022-11-29T13:03:30.771Z,98551.94
2022-11-29T13:06:52.568Z,98549.81
2022-11-29T13:10:31.403Z,98562.31
2022-11-29T13:13:45.733Z,98563.66
2022-11-29T13:17:03.934Z,98555.91
2022-11-29T13:20:31.881Z,98554.97
2022-11-29T13:24:11.651Z,98560.59
2022-11-29T13:27:26.368Z,98560.69
2022-11-29T13:30:34.524Z,98562.56
2022-11-29T13:34:01.885Z,98556.06
2022-11-29T13:37:26.781Z,98560.56
2022-11-29T13:40:48.109Z,98563.03
2022-11-29T13:44:11.421Z,98562.94
2022-11-29T13:47:21.227Z,98562.88
2022-11-29T13:50:46.824Z,98566.69
2022-11-29T13:53:54.533Z,98568.50
2022-11-29T13:57:09.876Z,98563.63
2022-11-29T14:00:32.706Z,98556.91
2022-11-29T14:03:43.527Z,98559.25
2022-11-29T14:07:05.829Z,98568.00
2022-11-29T14:10:29.437Z,98561.38
2022-11-29T14:13:52.384Z,98551.63
2022-11-29T14:17:04.363Z,98558.91
2022-11-29T14:20:57.264Z,98564.00
2022-11-29T14:24:43.135Z,98566.22
2022-11-29T14:28:07.037Z,98573.22
2022-11-29T14:31:14.648Z,98577.97
2022-11-29T14:34:48.876Z,98581.72
2022-11-29T14:38:15.940Z,98588.50
2022-11-29T14:41:41.202Z,98586.84
2022-11-29T14:44:54.117Z,98580.66
2022-11-29T14:48:02.040Z,98584.41
2022-11-29T14:51:17.614Z,98589.63
2022-11-29T14:54:23.995Z,98590.66
2022-11-29T14:58:15.808Z,98610.13
2022-11-29T15:01:27.447Z,98612.16
2022-11-29T15:04:38.908Z,98612.72
2022-11-29T15:08:00.360Z,98615.75
2022-11-29T15:11:20.944Z,98607.88
2022-11-29T15:14:50.450Z,98616.84
2022-11-29T15:18:22.767Z,98620.22
2022-11-29T15:21:43.064Z,98625.03
2022-11-29T15:24:57.350Z,98628.91
2022-11-29T15:28:06.064Z,98623.84
2022-11-29T15:31:21.782Z,98627.69
2022-11-29T15:34:36.683Z,98627.09
2022-11-29T15:37:48.662Z,98622.34
2022-11-29T15:40:58.730Z,98623.47
2022-11-29T15:44:08.964Z,98629.09
2022-11-29T15:47:24.275Z,98626.72
2022-11-29T15:50:38.009Z,98633.94
2022-11-29T15:54:00.455Z,98635.53
2022-11-29T15:57:29.408Z,98639.59
2022-11-29T16:00:36.641Z,98638.38
2022-11-29T16:03:49.873Z,98639.41
2022-11-29T16:07:00.756Z,98643.47
2022-11-29T16:10:21.266Z,98645.19
2022-11-29T16:13:38.393Z,98650.88
2022-11-29T16:16:52.692Z,98653.13
2022-11-29T16:20:31.587Z,98651.53
2022-11-29T16:23:43.690Z,98656.13
2022-11-29T16:26:53.480Z,98662.13
2022-11-29T16:30:01.700Z,98676.09
2022-11-29T16:33:14.028Z,98672.16
2022-11-29T16:36:31.143Z,98672.91
2022-11-29T16:39:42.628Z,98670.16
2022-11-29T16:43:24.387Z,98671.75
2022-11-29T16:46:42.167Z,98665.50
2022-11-29T16:50:09.231Z,98663.66
2022-11-29T16:53:37.825Z,98676.38
2022-11-29T16:56:50.683Z,98676.66
2022-11-29T16:59:57.147Z,98677.09
2022-11-29T17:03:04.539Z,98681.78
2022-11-29T17:06:15.636Z,98675.94
2022-11-29T17:09:30.801Z,98688.34
2022-11-29T17:12:43.446Z,98676.97
2022-11-29T17:15:54.854Z,98679.59
2022-11-29T17:19:01.132Z,98678.97
2022-11-29T17:22:09.614Z,98675.72
2022-11-29T17:25:16.260Z,98670.41
2022-11-29T17:28:26.352Z,98671.03
2022-11-29T17:31:33.953Z,98676.38
2022-11-29T17:34:43.038Z,98671.94
2022-11-29T17:37:50.071Z,98675.78
2022-11-29T17:40:57.621Z,98679.13
2022-11-29T17:44:07.213Z,98686.16
2022-11-29T17:47:14.502Z,98689.25
2022-11-29T17:50:21.244Z,98691.19
2022-11-29T17:53:28.675Z,98691.75
2022-11-29T17:56:35.848Z,98698.28
2022-11-29T17:59:45.647Z,98687.63
2022-11-29T18:02:51.992Z,98682.41
2022-11-29T18:06:02.939Z,98695.06
2022-11-29T18:09:13.632Z,98696.44
2022-11-29T18:12:20.806Z,98698.72
2022-11-29T18:18:41.393Z,98695.91
2022-11-29T18:21:49.287Z,98701.09
2022-11-29T18:25:15.882Z,98701.22
2022-11-29T18:28:22.459Z,98705.56
2022-11-29T18:31:35.284Z,98704.00
2022-11-29T18:34:45.244Z,98711.84
2022-11-29T18:38:14.034Z,98710.19
2022-11-29T18:41:22.698Z,98708.72
2022-11-29T18:44:30.089Z,98705.47
2022-11-29T18:47:36.962Z,98697.81
2022-11-29T18:50:46.759Z,98702.47
2022-11-29T18:53:53.831Z,98706.59
2022-11-29T18:56:59.976Z,98715.00
2022-11-29T19:00:09.257Z,98710.44
2022-11-29T19:03:15.230Z,98715.09
2022-11-29T19:06:28.322Z,98717.19
2022-11-29T19:09:34.395Z,98720.38
2022-11-29T19:12:41.307Z,98722.03
2022-11-29T19:15:54.154Z,98729.50
2022-11-29T19:19:03.951Z,98717.38
2022-11-29T19:22:13.660Z,98731.84
2022-11-29T19:25:20.685Z,98724.19
2022-11-29T19:28:27.470Z,98729.75
2022-11-29T19:31:35.004Z,98728.84
2022-11-29T19:34:41.709Z,98731.84
2022-11-29T19:37:51.573Z,98731.84
2022-11-29T19:40:57.641Z,98738.66
2022-11-29T19:44:08.509Z,98732.31
2022-11-29T19:47:15.127Z,98733.50
2022-11-29T19:50:22.156Z,98737.72
2022-11-29T19:53:31.147Z,98739.69
2022-11-29T19:56:39.104Z,98747.19
2022-11-29T19:59:45.643Z,98755.88
2022-11-29T20:02:52.988Z,98751.66
2022-11-29T20:05:59.802Z,98756.44
2022-11-29T20:09:10.773Z,98758.56
2022-11-29T20:12:16.895Z,98760.44
2022-11-29T20:15:23.845Z,98762.97
2022-11-29T20:18:34.846Z,98767.47
2022-11-29T20:21:48.902Z,98757.66
2022-11-29T20:24:58.121Z,98760.78
2022-11-29T20:28:08.118Z,98757.13
2022-11-29T20:31:21.549Z,98762.88
2022-11-29T20:34:29.465Z,98764.47
2022-11-29T20:38:07.482Z,98765.50
2022-11-29T20:41:30.266Z,98769.97
2022-11-29T20:44:42.241Z,98759.81
2022-11-29T20:47:59.795Z,98761.22
2022-11-29T20:51:07.389Z,98756.44
2022-11-29T20:54:15.604Z,98760.06
2022-11-29T20:57:25.149Z,98763.63
2022-11-29T21:00:32.259Z,98757.78
2022-11-29T21:03:38.542Z,98761.91
2022-11-29T21:06:45.929Z,98756.88
2022-11-29T21:09:55.438Z,98763.22
2022-11-29T21:13:08.474Z,98764.03
2022-11-29T21:16:17.854Z,98763.78
2022-11-29T21:19:29.578Z,98769.50
2022-11-29T21:22:54.787Z,98775.94
2022-11-29T21:26:16.187Z,98774.91
2022-11-29T21:29:27.133Z,98768.25
2022-11-29T21:32:35.768Z,98767.59
2022-11-29T21:35:43.139Z,98779.25
2022-11-29T21:38:54.892Z,98778.06
2022-11-29T21:42:01.484Z,98786.34
2022-11-29T21:45:15.633Z,98785.97
2022-11-29T21:48:34.695Z,98781.69
2022-11-29T21:51:41.618Z,98781.09
2022-11-29T21:54:48.475Z,98780.28
2022-11-29T21:57:56.059Z,98775.13
2022-11-29T22:01:14.304Z,98773.84
2022-11-29T22:04:21.956Z,98777.00
2022-11-29T22:07:28.162Z,98772.44
2022-11-29T22:10:35.322Z,98765.28
2022-11-29T22:14:03.939Z,98780.97
2022-11-29T22:17:13.403Z,98776.13
2022-11-29T22:20:19.753Z,98771.09
2022-11-29T22:23:26.622Z,98771.19
2022-11-29T22:26:32.744Z,98775.22
2022-11-29T22:29:39.527Z,98771.38
2022-11-29T22:32:48.410Z,98773.97
2022-11-29T22:35:55.327Z,98772.56
2022-11-29T22:39:01.591Z,98768.75
2022-11-29T22:42:08.709Z,98773.06
2022-11-29T22:45:15.123Z,98771.84
2022-11-29T22:48:24.612Z,98775.19
2022-11-29T22:51:34.008Z,98778.56
2022-11-29T22:54:40.911Z,98783.66
2022-11-29T22:57:47.024Z,98779.97
2022-11-29T23:00:53.999Z,98783.47
2022-11-29T23:04:06.327Z,98777.59
2022-11-29T23:07:13.209Z,98771.53
2022-11-29T23:10:19.548Z,98770.91
2022-11-29T23:13:28.273Z,98772.13
2022-11-29T23:16:36.000Z,98773.56
2022-11-29T23:19:46.015Z,98767.47
2022-11-29T23:22:52.216Z,98775.19
2022-11-29T23:25:59.159Z,98783.03
2022-11-29T23:29:06.237Z,98776.88
2022-11-29T23:32:13.300Z,98786.47
2022-11-29T23:35:24.298Z,98790.31
2022-11-29T23:38:31.831Z,98774.50
2022-11-29T23:41:39.608Z,98785.63
2022-11-29T23:44:46.655Z,98776.28
2022-11-29T23:47:53.053Z,98780.69
2022-11-29T23:51:02.675Z,98782.38
2022-11-29T23:54:09.182Z,98783.22
2022-11-29T23:57:16.040Z,98784.69
